sensor_id;sensor_type;location;lat;lon;timestamp;temperature;humidity
16160;DHT22;8185;57.818;15.224;2023-06-19T00:02:13;15.20;99.90
16160;DHT22;8185;57.818;15.224;2023-06-19T00:04:41;15.20;99.90
16160;DHT22;8185;57.818;15.224;2023-06-19T00:07:09;15.20;99.90
16160;DHT22;8185;57.818;15.224;2023-06-19T00:09:36;15.20;99.90
16160;DHT22;8185;57.818;15.224;2023-06-19T00:12:04;15.10;99.90
16160;DHT22;8185;57.818;15.224;2023-06-19T00:14:31;15.10;99.90
16160;DHT22;8185;57.818;15.224;2023-06-19T00:16:58;15.10;99.90
16160;DHT22;8185;57.818;15.224;2023-06-19T00:19:26;15.20;99.90
16160;DHT22;8185;57.818;15.224;2023-06-19T00:21:55;15.20;99.90
16160;DHT22;8185;57.818;15.224;2023-06-19T00:24:22;15.20;99.90
16160;DHT22;8185;57.818;15.224;2023-06-19T00:26:50;15.20;99.90
16160;DHT22;8185;57.818;15.224;2023-06-19T00:29:17;15.20;99.90
16160;DHT22;8185;57.818;15.224;2023-06-19T00:31:44;15.20;99.90
16160;DHT22;8185;57.818;15.224;2023-06-19T00:34:11;15.20;99.90
16160;DHT22;8185;57.818;15.224;2023-06-19T00:36:38;15.10;99.90
16160;DHT22;8185;57.818;15.224;2023-06-19T00:39:07;15.10;99.90
16160;DHT22;8185;57.818;15.224;2023-06-19T00:41:35;15.10;99.90
16160;DHT22;8185;57.818;15.224;2023-06-19T00:44:03;15.10;99.90
16160;DHT22;8185;57.818;15.224;2023-06-19T00:46:31;15.10;99.90
16160;DHT22;8185;57.818;15.224;2023-06-19T00:48:58;15.00;99.90
16160;DHT22;8185;57.818;15.224;2023-06-19T00:51:25;15.00;99.90
16160;DHT22;8185;57.818;15.224;2023-06-19T00:53:52;15.00;99.90
16160;DHT22;8185;57.818;15.224;2023-06-19T00:56:21;14.90;99.90
16160;DHT22;8185;57.818;15.224;2023-06-19T00:58:48;14.90;99.90
16160;DHT22;8185;57.818;15.224;2023-06-19T01:01:16;14.90;99.90
16160;DHT22;8185;57.818;15.224;2023-06-19T01:03:43;14.90;99.90
16160;DHT22;8185;57.818;15.224;2023-06-19T01:06:13;14.90;99.90
16160;DHT22;8185;57.818;15.224;2023-06-19T01:08:50;14.90;99.90
16160;DHT22;8185;57.818;15.224;2023-06-19T01:11:23;14.90;99.90
16160;DHT22;8185;57.818;15.224;2023-06-19T01:13:55;15.00;99.90
16160;DHT22;8185;57.818;15.224;2023-06-19T01:16:24;15.00;99.90
16160;DHT22;8185;57.818;15.224;2023-06-19T01:18:51;15.00;99.90
16160;DHT22;8185;57.818;15.224;2023-06-19T01:21:19;15.00;99.90
16160;DHT22;8185;57.818;15.224;2023-06-19T01:23:47;14.90;99.90
16160;DHT22;8185;57.818;15.224;2023-06-19T01:26:16;14.90;99.90
16160;DHT22;8185;57.818;15.224;2023-06-19T01:28:44;14.90;99.90
16160;DHT22;8185;57.818;15.224;2023-06-19T01:31:17;14.90;99.90
16160;DHT22;8185;57.818;15.224;2023-06-19T01:33:47;14.90;99.90
16160;DHT22;8185;57.818;15.224;2023-06-19T01:36:17;14.90;99.90
16160;DHT22;8185;57.818;15.224;2023-06-19T01:38:48;14.90;99.90
16160;DHT22;8185;57.818;15.224;2023-06-19T01:41:16;14.90;99.90
16160;DHT22;8185;57.818;15.224;2023-06-19T01:43:45;14.90;99.90
16160;DHT22;8185;57.818;15.224;2023-06-19T01:46:13;14.90;99.90
16160;DHT22;8185;57.818;15.224;2023-06-19T01:48:40;14.90;99.90
16160;DHT22;8185;57.818;15.224;2023-06-19T01:51:07;14.90;99.90
16160;DHT22;8185;57.818;15.224;2023-06-19T01:53:36;14.90;99.90
16160;DHT22;8185;57.818;15.224;2023-06-19T01:56:04;14.90;99.90
16160;DHT22;8185;57.818;15.224;2023-06-19T01:58:32;15.00;99.90
16160;DHT22;8185;57.818;15.224;2023-06-19T02:00:59;14.90;99.90
16160;DHT22;8185;57.818;15.224;2023-06-19T02:03:26;14.90;99.90
16160;DHT22;8185;57.818;15.224;2023-06-19T02:05:53;14.90;99.90
16160;DHT22;8185;57.818;15.224;2023-06-19T02:08:20;14.90;99.90
16160;DHT22;8185;57.818;15.224;2023-06-19T02:10:47;14.90;99.90
16160;DHT22;8185;57.818;15.224;2023-06-19T02:13:16;14.90;99.90
16160;DHT22;8185;57.818;15.224;2023-06-19T02:15:43;14.90;99.90
16160;DHT22;8185;57.818;15.224;2023-06-19T02:18:10;14.90;99.90
16160;DHT22;8185;57.818;15.224;2023-06-19T02:20:38;14.90;99.90
16160;DHT22;8185;57.818;15.224;2023-06-19T02:23:05;14.90;99.90
16160;DHT22;8185;57.818;15.224;2023-06-19T02:25:32;14.90;99.90
16160;DHT22;8185;57.818;15.224;2023-06-19T02:28:01;14.80;99.90
16160;DHT22;8185;57.818;15.224;2023-06-19T02:30:30;14.90;99.90
16160;DHT22;8185;57.818;15.224;2023-06-19T02:32:57;14.80;99.90
16160;DHT22;8185;57.818;15.224;2023-06-19T02:35:25;14.80;99.90
16160;DHT22;8185;57.818;15.224;2023-06-19T02:37:52;14.90;99.90
16160;DHT22;8185;57.818;15.224;2023-06-19T02:40:19;14.90;99.90
16160;DHT22;8185;57.818;15.224;2023-06-19T02:42:46;14.80;99.90
16160;DHT22;8185;57.818;15.224;2023-06-19T02:45:14;14.80;99.90
16160;DHT22;8185;57.818;15.224;2023-06-19T02:47:43;14.90;99.90
16160;DHT22;8185;57.818;15.224;2023-06-19T02:50:11;14.90;99.90
16160;DHT22;8185;57.818;15.224;2023-06-19T02:52:38;14.90;99.90
16160;DHT22;8185;57.818;15.224;2023-06-19T02:55:05;14.90;99.90
16160;DHT22;8185;57.818;15.224;2023-06-19T02:57:34;14.90;99.90
16160;DHT22;8185;57.818;15.224;2023-06-19T03:00:01;14.90;99.90
16160;DHT22;8185;57.818;15.224;2023-06-19T03:02:29;14.90;99.90
16160;DHT22;8185;57.818;15.224;2023-06-19T03:04:57;14.90;99.90
16160;DHT22;8185;57.818;15.224;2023-06-19T03:07:24;14.90;99.90
16160;DHT22;8185;57.818;15.224;2023-06-19T03:09:54;14.90;99.90
16160;DHT22;8185;57.818;15.224;2023-06-19T03:12:21;15.00;99.90
16160;DHT22;8185;57.818;15.224;2023-06-19T03:14:49;14.90;99.90
16160;DHT22;8185;57.818;15.224;2023-06-19T03:17:16;14.90;99.90
16160;DHT22;8185;57.818;15.224;2023-06-19T03:19:43;14.90;99.90
16160;DHT22;8185;57.818;15.224;2023-06-19T03:22:11;14.90;99.90
16160;DHT22;8185;57.818;15.224;2023-06-19T03:24:38;14.90;99.90
16160;DHT22;8185;57.818;15.224;2023-06-19T03:27:06;14.90;99.90
16160;DHT22;8185;57.818;15.224;2023-06-19T03:29:33;14.90;99.90
16160;DHT22;8185;57.818;15.224;2023-06-19T03:32:01;14.90;99.90
16160;DHT22;8185;57.818;15.224;2023-06-19T03:34:28;14.90;99.90
16160;DHT22;8185;57.818;15.224;2023-06-19T03:36:55;14.90;99.90
16160;DHT22;8185;57.818;15.224;2023-06-19T03:39:23;14.90;99.90
16160;DHT22;8185;57.818;15.224;2023-06-19T03:41:51;14.90;99.90
16160;DHT22;8185;57.818;15.224;2023-06-19T03:44:18;14.90;99.90
16160;DHT22;8185;57.818;15.224;2023-06-19T03:46:45;14.90;99.90
16160;DHT22;8185;57.818;15.224;2023-06-19T03:49:13;14.90;99.90
16160;DHT22;8185;57.818;15.224;2023-06-19T03:51:40;14.80;99.90
16160;DHT22;8185;57.818;15.224;2023-06-19T03:54:07;14.70;99.90
16160;DHT22;8185;57.818;15.224;2023-06-19T03:56:35;14.70;99.90
16160;DHT22;8185;57.818;15.224;2023-06-19T03:59:03;14.70;99.90
16160;DHT22;8185;57.818;15.224;2023-06-19T04:01:30;14.70;99.90
16160;DHT22;8185;57.818;15.224;2023-06-19T04:03:57;14.70;99.90
16160;DHT22;8185;57.818;15.224;2023-06-19T04:06:24;14.80;99.90
16160;DHT22;8185;57.818;15.224;2023-06-19T04:08:52;14.80;99.90
16160;DHT22;8185;57.818;15.224;2023-06-19T04:11:19;14.80;99.90
16160;DHT22;8185;57.818;15.224;2023-06-19T04:13:47;14.80;99.90
16160;DHT22;8185;57.818;15.224;2023-06-19T04:16:14;14.80;99.90
16160;DHT22;8185;57.818;15.224;2023-06-19T04:18:42;14.80;99.90
16160;DHT22;8185;57.818;15.224;2023-06-19T04:21:09;14.80;99.90
16160;DHT22;8185;57.818;15.224;2023-06-19T04:23:36;14.80;99.90
16160;DHT22;8185;57.818;15.224;2023-06-19T04:26:03;14.80;99.90
16160;DHT22;8185;57.818;15.224;2023-06-19T04:28:30;14.80;99.90
16160;DHT22;8185;57.818;15.224;2023-06-19T04:30:59;14.90;99.90
16160;DHT22;8185;57.818;15.224;2023-06-19T04:33:27;14.80;99.90
16160;DHT22;8185;57.818;15.224;2023-06-19T04:35:54;14.80;99.90
16160;DHT22;8185;57.818;15.224;2023-06-19T04:38:21;14.80;99.90
16160;DHT22;8185;57.818;15.224;2023-06-19T04:40:50;14.90;99.90
16160;DHT22;8185;57.818;15.224;2023-06-19T04:43:17;14.90;99.90
16160;DHT22;8185;57.818;15.224;2023-06-19T04:45:44;14.90;99.90
16160;DHT22;8185;57.818;15.224;2023-06-19T04:48:13;15.00;99.90
16160;DHT22;8185;57.818;15.224;2023-06-19T04:50:40;14.90;99.90
16160;DHT22;8185;57.818;15.224;2023-06-19T04:53:07;14.90;99.90
16160;DHT22;8185;57.818;15.224;2023-06-19T04:55:35;14.90;99.90
16160;DHT22;8185;57.818;15.224;2023-06-19T04:58:03;14.90;99.90
16160;DHT22;8185;57.818;15.224;2023-06-19T05:00:30;14.90;99.90
16160;DHT22;8185;57.818;15.224;2023-06-19T05:02:57;14.90;99.90
16160;DHT22;8185;57.818;15.224;2023-06-19T05:05:28;15.00;99.90
16160;DHT22;8185;57.818;15.224;2023-06-19T05:07:55;15.00;99.90
16160;DHT22;8185;57.818;15.224;2023-06-19T05:10:22;15.10;99.90
16160;DHT22;8185;57.818;15.224;2023-06-19T05:12:50;15.10;99.90
16160;DHT22;8185;57.818;15.224;2023-06-19T05:15:17;15.10;99.90
16160;DHT22;8185;57.818;15.224;2023-06-19T05:17:44;15.20;99.90
16160;DHT22;8185;57.818;15.224;2023-06-19T05:20:12;15.30;99.90
16160;DHT22;8185;57.818;15.224;2023-06-19T05:22:41;15.30;99.90
16160;DHT22;8185;57.818;15.224;2023-06-19T05:25:09;15.30;99.90
16160;DHT22;8185;57.818;15.224;2023-06-19T05:27:36;15.30;99.90
16160;DHT22;8185;57.818;15.224;2023-06-19T05:30:04;15.40;99.90
16160;DHT22;8185;57.818;15.224;2023-06-19T05:32:32;15.40;99.90
16160;DHT22;8185;57.818;15.224;2023-06-19T05:34:59;15.40;99.90
16160;DHT22;8185;57.818;15.224;2023-06-19T05:37:27;15.50;99.90
16160;DHT22;8185;57.818;15.224;2023-06-19T05:39:55;15.60;99.90
16160;DHT22;8185;57.818;15.224;2023-06-19T05:42:23;15.70;99.90
16160;DHT22;8185;57.818;15.224;2023-06-19T05:44:50;15.70;99.90
16160;DHT22;8185;57.818;15.224;2023-06-19T05:47:17;15.70;99.90
16160;DHT22;8185;57.818;15.224;2023-06-19T05:49:46;15.80;99.90
16160;DHT22;8185;57.818;15.224;2023-06-19T05:52:14;15.80;99.90
16160;DHT22;8185;57.818;15.224;2023-06-19T05:54:41;15.90;99.90
16160;DHT22;8185;57.818;15.224;2023-06-19T05:57:10;15.90;99.90
16160;DHT22;8185;57.818;15.224;2023-06-19T05:59:37;16.00;99.90
16160;DHT22;8185;57.818;15.224;2023-06-19T06:02:05;16.00;99.90
16160;DHT22;8185;57.818;15.224;2023-06-19T06:04:33;16.10;99.90
16160;DHT22;8185;57.818;15.224;2023-06-19T06:07:02;16.20;99.90
16160;DHT22;8185;57.818;15.224;2023-06-19T06:09:29;16.20;99.90
16160;DHT22;8185;57.818;15.224;2023-06-19T06:11:56;16.20;99.90
16160;DHT22;8185;57.818;15.224;2023-06-19T06:14:25;16.20;99.90
16160;DHT22;8185;57.818;15.224;2023-06-19T06:16:52;16.30;99.90
16160;DHT22;8185;57.818;15.224;2023-06-19T06:19:20;16.40;99.90
16160;DHT22;8185;57.818;15.224;2023-06-19T06:21:48;16.40;99.90
16160;DHT22;8185;57.818;15.224;2023-06-19T06:24:15;16.40;99.90
16160;DHT22;8185;57.818;15.224;2023-06-19T06:26:43;16.50;99.90
16160;DHT22;8185;57.818;15.224;2023-06-19T06:29:10;16.60;99.90
16160;DHT22;8185;57.818;15.224;2023-06-19T06:31:39;16.70;99.90
16160;DHT22;8185;57.818;15.224;2023-06-19T06:34:07;16.60;99.90
16160;DHT22;8185;57.818;15.224;2023-06-19T06:36:34;16.60;99.90
16160;DHT22;8185;57.818;15.224;2023-06-19T06:39:02;16.80;99.90
16160;DHT22;8185;57.818;15.224;2023-06-19T06:41:29;16.90;99.90
16160;DHT22;8185;57.818;15.224;2023-06-19T06:43:56;16.90;99.90
16160;DHT22;8185;57.818;15.224;2023-06-19T06:46:24;17.10;99.90
16160;DHT22;8185;57.818;15.224;2023-06-19T06:48:52;17.30;99.90
16160;DHT22;8185;57.818;15.224;2023-06-19T06:51:20;17.40;99.90
16160;DHT22;8185;57.818;15.224;2023-06-19T06:53:47;17.40;99.90
16160;DHT22;8185;57.818;15.224;2023-06-19T06:56:15;17.30;99.90
16160;DHT22;8185;57.818;15.224;2023-06-19T06:58:42;17.40;99.90
16160;DHT22;8185;57.818;15.224;2023-06-19T07:01:11;17.50;99.90
16160;DHT22;8185;57.818;15.224;2023-06-19T07:03:39;17.60;99.90
16160;DHT22;8185;57.818;15.224;2023-06-19T07:06:07;17.90;99.90
16160;DHT22;8185;57.818;15.224;2023-06-19T07:08:35;18.00;99.90
16160;DHT22;8185;57.818;15.224;2023-06-19T07:11:03;18.00;99.90
16160;DHT22;8185;57.818;15.224;2023-06-19T07:13:30;17.90;99.90
16160;DHT22;8185;57.818;15.224;2023-06-19T07:15:57;17.90;99.90
16160;DHT22;8185;57.818;15.224;2023-06-19T07:18:26;17.90;99.90
16160;DHT22;8185;57.818;15.224;2023-06-19T07:20:53;17.70;99.90
16160;DHT22;8185;57.818;15.224;2023-06-19T07:23:22;17.70;99.90
16160;DHT22;8185;57.818;15.224;2023-06-19T07:25:49;17.70;99.90
16160;DHT22;8185;57.818;15.224;2023-06-19T07:28:17;17.80;99.90
16160;DHT22;8185;57.818;15.224;2023-06-19T07:30:44;17.80;99.90
16160;DHT22;8185;57.818;15.224;2023-06-19T07:33:14;17.80;99.90
16160;DHT22;8185;57.818;15.224;2023-06-19T07:35:41;17.70;99.90
16160;DHT22;8185;57.818;15.224;2023-06-19T07:38:08;17.50;99.90
16160;DHT22;8185;57.818;15.224;2023-06-19T07:40:37;17.40;99.90
16160;DHT22;8185;57.818;15.224;2023-06-19T07:43:04;17.20;99.90
16160;DHT22;8185;57.818;15.224;2023-06-19T07:45:32;17.40;99.90
16160;DHT22;8185;57.818;15.224;2023-06-19T07:47:59;17.50;99.90
16160;DHT22;8185;57.818;15.224;2023-06-19T07:50:27;17.60;99.90
16160;DHT22;8185;57.818;15.224;2023-06-19T07:52:54;17.70;99.90
16160;DHT22;8185;57.818;15.224;2023-06-19T07:55:21;17.60;99.90
16160;DHT22;8185;57.818;15.224;2023-06-19T07:57:50;17.40;99.90
16160;DHT22;8185;57.818;15.224;2023-06-19T08:00:18;17.30;99.90
16160;DHT22;8185;57.818;15.224;2023-06-19T08:02:45;17.20;99.90
16160;DHT22;8185;57.818;15.224;2023-06-19T08:05:15;17.10;99.90
16160;DHT22;8185;57.818;15.224;2023-06-19T08:07:43;17.00;99.90
16160;DHT22;8185;57.818;15.224;2023-06-19T08:10:10;16.90;99.90
16160;DHT22;8185;57.818;15.224;2023-06-19T08:12:38;16.90;99.90
16160;DHT22;8185;57.818;15.224;2023-06-19T08:15:09;16.80;99.90
16160;DHT22;8185;57.818;15.224;2023-06-19T08:17:37;17.00;99.90
16160;DHT22;8185;57.818;15.224;2023-06-19T08:20:05;17.30;99.90
16160;DHT22;8185;57.818;15.224;2023-06-19T08:22:33;17.50;99.90
16160;DHT22;8185;57.818;15.224;2023-06-19T08:25:00;17.80;99.90
16160;DHT22;8185;57.818;15.224;2023-06-19T08:27:27;18.00;99.90
16160;DHT22;8185;57.818;15.224;2023-06-19T08:29:54;18.20;99.90
16160;DHT22;8185;57.818;15.224;2023-06-19T08:32:23;18.40;99.90
16160;DHT22;8185;57.818;15.224;2023-06-19T08:34:50;18.50;99.90
16160;DHT22;8185;57.818;15.224;2023-06-19T08:37:18;19.00;99.90
16160;DHT22;8185;57.818;15.224;2023-06-19T08:39:45;19.10;99.90
16160;DHT22;8185;57.818;15.224;2023-06-19T08:42:12;19.20;99.90
16160;DHT22;8185;57.818;15.224;2023-06-19T08:44:40;19.30;99.90
16160;DHT22;8185;57.818;15.224;2023-06-19T08:47:07;19.70;99.90
16160;DHT22;8185;57.818;15.224;2023-06-19T08:49:37;20.20;99.90
16160;DHT22;8185;57.818;15.224;2023-06-19T08:52:05;20.20;99.90
16160;DHT22;8185;57.818;15.224;2023-06-19T08:54:33;19.80;99.90
16160;DHT22;8185;57.818;15.224;2023-06-19T08:57:09;19.40;99.90
16160;DHT22;8185;57.818;15.224;2023-06-19T08:59:37;19.40;99.90
16160;DHT22;8185;57.818;15.224;2023-06-19T09:02:05;19.20;99.90
16160;DHT22;8185;57.818;15.224;2023-06-19T09:04:33;19.00;99.90
16160;DHT22;8185;57.818;15.224;2023-06-19T09:07:02;19.00;99.90
16160;DHT22;8185;57.818;15.224;2023-06-19T09:09:30;19.00;99.90
16160;DHT22;8185;57.818;15.224;2023-06-19T09:11:59;18.80;99.90
16160;DHT22;8185;57.818;15.224;2023-06-19T09:14:33;18.60;99.90
16160;DHT22;8185;57.818;15.224;2023-06-19T09:17:02;18.50;99.90
16160;DHT22;8185;57.818;15.224;2023-06-19T09:19:29;18.60;99.90
16160;DHT22;8185;57.818;15.224;2023-06-19T09:22:02;18.40;99.90
16160;DHT22;8185;57.818;15.224;2023-06-19T09:24:36;18.70;99.90
16160;DHT22;8185;57.818;15.224;2023-06-19T09:27:08;18.80;99.90
16160;DHT22;8185;57.818;15.224;2023-06-19T09:29:38;19.00;99.90
16160;DHT22;8185;57.818;15.224;2023-06-19T09:32:16;18.90;99.90
16160;DHT22;8185;57.818;15.224;2023-06-19T09:34:44;19.10;99.90
16160;DHT22;8185;57.818;15.224;2023-06-19T09:37:13;19.20;99.90
16160;DHT22;8185;57.818;15.224;2023-06-19T09:39:41;19.20;99.90
16160;DHT22;8185;57.818;15.224;2023-06-19T09:42:09;19.40;99.90
16160;DHT22;8185;57.818;15.224;2023-06-19T09:44:40;19.70;99.90
16160;DHT22;8185;57.818;15.224;2023-06-19T09:47:18;20.00;99.90
16160;DHT22;8185;57.818;15.224;2023-06-19T09:49:53;20.00;99.90
16160;DHT22;8185;57.818;15.224;2023-06-19T09:52:23;20.20;99.90
16160;DHT22;8185;57.818;15.224;2023-06-19T09:54:51;20.10;99.90
16160;DHT22;8185;57.818;15.224;2023-06-19T09:57:19;19.80;99.90
16160;DHT22;8185;57.818;15.224;2023-06-19T09:59:47;19.80;99.90
16160;DHT22;8185;57.818;15.224;2023-06-19T10:02:15;20.10;99.90
16160;DHT22;8185;57.818;15.224;2023-06-19T10:04:44;20.20;99.90
16160;DHT22;8185;57.818;15.224;2023-06-19T10:07:16;20.30;99.90
16160;DHT22;8185;57.818;15.224;2023-06-19T10:09:57;20.00;99.90
16160;DHT22;8185;57.818;15.224;2023-06-19T10:12:37;20.30;99.90
16160;DHT22;8185;57.818;15.224;2023-06-19T10:15:12;20.20;99.90
16160;DHT22;8185;57.818;15.224;2023-06-19T10:17:49;20.30;99.90
16160;DHT22;8185;57.818;15.224;2023-06-19T10:20:25;20.40;99.90
16160;DHT22;8185;57.818;15.224;2023-06-19T10:22:57;20.70;99.90
16160;DHT22;8185;57.818;15.224;2023-06-19T10:25:28;20.60;99.90
16160;DHT22;8185;57.818;15.224;2023-06-19T10:27:56;20.60;99.90
16160;DHT22;8185;57.818;15.224;2023-06-19T10:30:23;20.70;99.90
16160;DHT22;8185;57.818;15.224;2023-06-19T10:32:50;20.50;99.90
16160;DHT22;8185;57.818;15.224;2023-06-19T10:35:19;20.50;99.90
16160;DHT22;8185;57.818;15.224;2023-06-19T10:37:49;20.50;99.90
16160;DHT22;8185;57.818;15.224;2023-06-19T10:40:17;20.60;99.90
16160;DHT22;8185;57.818;15.224;2023-06-19T10:42:46;20.60;99.90
16160;DHT22;8185;57.818;15.224;2023-06-19T10:45:14;20.60;99.90
16160;DHT22;8185;57.818;15.224;2023-06-19T10:47:46;20.60;99.90
16160;DHT22;8185;57.818;15.224;2023-06-19T10:50:14;20.60;99.90
16160;DHT22;8185;57.818;15.224;2023-06-19T10:52:42;20.60;99.90
16160;DHT22;8185;57.818;15.224;2023-06-19T10:55:11;20.50;99.90
16160;DHT22;8185;57.818;15.224;2023-06-19T10:57:39;20.30;99.90
16160;DHT22;8185;57.818;15.224;2023-06-19T11:00:10;20.70;99.90
16160;DHT22;8185;57.818;15.224;2023-06-19T11:02:39;21.10;99.90
16160;DHT22;8185;57.818;15.224;2023-06-19T11:05:09;21.30;99.90
16160;DHT22;8185;57.818;15.224;2023-06-19T11:07:37;21.10;99.90
16160;DHT22;8185;57.818;15.224;2023-06-19T11:10:06;21.00;99.90
16160;DHT22;8185;57.818;15.224;2023-06-19T11:12:33;21.00;99.90
16160;DHT22;8185;57.818;15.224;2023-06-19T11:15:04;21.00;99.90
16160;DHT22;8185;57.818;15.224;2023-06-19T11:17:33;20.90;99.90
16160;DHT22;8185;57.818;15.224;2023-06-19T11:20:00;20.80;99.90
16160;DHT22;8185;57.818;15.224;2023-06-19T11:22:37;20.80;99.90
16160;DHT22;8185;57.818;15.224;2023-06-19T11:25:06;20.70;99.90
16160;DHT22;8185;57.818;15.224;2023-06-19T11:27:33;20.40;99.90
16160;DHT22;8185;57.818;15.224;2023-06-19T11:30:01;20.40;99.90
16160;DHT22;8185;57.818;15.224;2023-06-19T11:32:33;20.50;99.90
16160;DHT22;8185;57.818;15.224;2023-06-19T11:35:07;20.30;99.90
16160;DHT22;8185;57.818;15.224;2023-06-19T11:37:35;20.70;99.90
16160;DHT22;8185;57.818;15.224;2023-06-19T11:40:02;21.10;99.90
16160;DHT22;8185;57.818;15.224;2023-06-19T11:42:45;21.20;99.90
16160;DHT22;8185;57.818;15.224;2023-06-19T11:45:13;21.60;99.90
16160;DHT22;8185;57.818;15.224;2023-06-19T11:47:43;21.30;99.90
16160;DHT22;8185;57.818;15.224;2023-06-19T11:50:11;21.80;99.90
16160;DHT22;8185;57.818;15.224;2023-06-19T11:52:39;22.30;99.90
16160;DHT22;8185;57.818;15.224;2023-06-19T11:55:07;22.60;99.90
16160;DHT22;8185;57.818;15.224;2023-06-19T11:57:34;22.50;99.90
16160;DHT22;8185;57.818;15.224;2023-06-19T12:00:02;22.10;99.90
16160;DHT22;8185;57.818;15.224;2023-06-19T12:02:32;21.90;99.90
16160;DHT22;8185;57.818;15.224;2023-06-19T12:05:01;21.80;99.90
16160;DHT22;8185;57.818;15.224;2023-06-19T12:07:28;22.00;99.90
16160;DHT22;8185;57.818;15.224;2023-06-19T12:09:55;22.10;99.90
16160;DHT22;8185;57.818;15.224;2023-06-19T12:12:23;22.60;99.90
16160;DHT22;8185;57.818;15.224;2023-06-19T12:14:51;22.90;99.90
16160;DHT22;8185;57.818;15.224;2023-06-19T12:17:19;23.80;99.90
16160;DHT22;8185;57.818;15.224;2023-06-19T12:19:46;24.50;99.90
16160;DHT22;8185;57.818;15.224;2023-06-19T12:22:15;24.30;99.90
16160;DHT22;8185;57.818;15.224;2023-06-19T12:24:43;24.00;99.90
16160;DHT22;8185;57.818;15.224;2023-06-19T12:27:10;23.80;99.90
16160;DHT22;8185;57.818;15.224;2023-06-19T12:29:37;23.20;99.90
16160;DHT22;8185;57.818;15.224;2023-06-19T12:32:05;22.90;99.90
16160;DHT22;8185;57.818;15.224;2023-06-19T12:34:33;22.70;99.90
16160;DHT22;8185;57.818;15.224;2023-06-19T12:37:00;22.40;99.90
16160;DHT22;8185;57.818;15.224;2023-06-19T12:39:29;22.10;99.90
16160;DHT22;8185;57.818;15.224;2023-06-19T12:41:57;22.30;99.90
16160;DHT22;8185;57.818;15.224;2023-06-19T12:44:24;23.20;99.90
16160;DHT22;8185;57.818;15.224;2023-06-19T12:46:51;24.10;99.90
16160;DHT22;8185;57.818;15.224;2023-06-19T12:49:19;24.50;99.90
16160;DHT22;8185;57.818;15.224;2023-06-19T12:51:46;25.40;99.90
16160;DHT22;8185;57.818;15.224;2023-06-19T12:54:17;26.10;99.90
16160;DHT22;8185;57.818;15.224;2023-06-19T12:56:45;26.90;99.90
16160;DHT22;8185;57.818;15.224;2023-06-19T12:59:12;26.40;99.90
16160;DHT22;8185;57.818;15.224;2023-06-19T13:01:40;25.60;99.90
16160;DHT22;8185;57.818;15.224;2023-06-19T13:04:08;26.20;99.90
16160;DHT22;8185;57.818;15.224;2023-06-19T13:06:36;26.00;99.90
16160;DHT22;8185;57.818;15.224;2023-06-19T13:09:04;26.00;99.90
16160;DHT22;8185;57.818;15.224;2023-06-19T13:11:31;24.50;99.90
16160;DHT22;8185;57.818;15.224;2023-06-19T13:14:01;24.10;99.90
16160;DHT22;8185;57.818;15.224;2023-06-19T13:16:30;23.60;99.90
16160;DHT22;8185;57.818;15.224;2023-06-19T13:18:57;23.00;99.90
16160;DHT22;8185;57.818;15.224;2023-06-19T13:21:25;22.70;99.90
16160;DHT22;8185;57.818;15.224;2023-06-19T13:23:52;22.40;99.90
16160;DHT22;8185;57.818;15.224;2023-06-19T13:26:19;22.20;99.90
16160;DHT22;8185;57.818;15.224;2023-06-19T13:28:47;22.10;99.90
16160;DHT22;8185;57.818;15.224;2023-06-19T13:31:15;21.60;99.90
16160;DHT22;8185;57.818;15.224;2023-06-19T13:33:43;21.60;99.90
16160;DHT22;8185;57.818;15.224;2023-06-19T13:36:10;21.60;99.90
16160;DHT22;8185;57.818;15.224;2023-06-19T13:38:37;21.70;99.90
16160;DHT22;8185;57.818;15.224;2023-06-19T13:41:04;21.70;99.90
16160;DHT22;8185;57.818;15.224;2023-06-19T13:43:32;21.80;99.90
16160;DHT22;8185;57.818;15.224;2023-06-19T13:45:59;21.90;99.90
16160;DHT22;8185;57.818;15.224;2023-06-19T13:48:30;22.10;99.90
16160;DHT22;8185;57.818;15.224;2023-06-19T13:51:00;22.40;99.90
16160;DHT22;8185;57.818;15.224;2023-06-19T13:53:28;22.60;99.90
16160;DHT22;8185;57.818;15.224;2023-06-19T13:55:55;22.80;99.90
16160;DHT22;8185;57.818;15.224;2023-06-19T13:58:23;23.30;99.90
16160;DHT22;8185;57.818;15.224;2023-06-19T14:00:50;23.30;99.90
16160;DHT22;8185;57.818;15.224;2023-06-19T14:03:18;23.10;99.90
16160;DHT22;8185;57.818;15.224;2023-06-19T14:05:47;23.10;99.90
16160;DHT22;8185;57.818;15.224;2023-06-19T14:08:14;23.20;99.90
16160;DHT22;8185;57.818;15.224;2023-06-19T14:10:42;23.10;99.90
16160;DHT22;8185;57.818;15.224;2023-06-19T14:13:09;22.80;99.90
16160;DHT22;8185;57.818;15.224;2023-06-19T14:15:36;22.50;99.90
16160;DHT22;8185;57.818;15.224;2023-06-19T14:18:03;22.30;99.90
16160;DHT22;8185;57.818;15.224;2023-06-19T14:20:31;22.20;99.90
16160;DHT22;8185;57.818;15.224;2023-06-19T14:23:00;22.30;99.90
16160;DHT22;8185;57.818;15.224;2023-06-19T14:25:27;22.40;99.90
16160;DHT22;8185;57.818;15.224;2023-06-19T14:27:54;22.40;99.90
16160;DHT22;8185;57.818;15.224;2023-06-19T14:30:22;22.50;99.90
16160;DHT22;8185;57.818;15.224;2023-06-19T14:32:50;22.80;99.90
16160;DHT22;8185;57.818;15.224;2023-06-19T14:35:18;23.10;99.90
16160;DHT22;8185;57.818;15.224;2023-06-19T14:37:45;23.20;99.90
16160;DHT22;8185;57.818;15.224;2023-06-19T14:40:14;24.20;99.90
16160;DHT22;8185;57.818;15.224;2023-06-19T14:42:41;24.10;99.90
16160;DHT22;8185;57.818;15.224;2023-06-19T14:45:09;24.30;99.90
16160;DHT22;8185;57.818;15.224;2023-06-19T14:47:36;24.10;99.90
16160;DHT22;8185;57.818;15.224;2023-06-19T14:50:04;23.80;99.90
16160;DHT22;8185;57.818;15.224;2023-06-19T14:52:32;24.20;99.90
16160;DHT22;8185;57.818;15.224;2023-06-19T14:54:59;25.30;99.90
16160;DHT22;8185;57.818;15.224;2023-06-19T14:57:28;25.20;99.90
16160;DHT22;8185;57.818;15.224;2023-06-19T14:59:55;25.10;99.90
16160;DHT22;8185;57.818;15.224;2023-06-19T15:02:22;24.50;99.90
16160;DHT22;8185;57.818;15.224;2023-06-19T15:04:49;24.50;99.90
16160;DHT22;8185;57.818;15.224;2023-06-19T15:07:16;24.80;99.90
16160;DHT22;8185;57.818;15.224;2023-06-19T15:09:44;24.80;99.90
16160;DHT22;8185;57.818;15.224;2023-06-19T15:12:11;24.20;99.90
16160;DHT22;8185;57.818;15.224;2023-06-19T15:14:39;25.30;99.90
16160;DHT22;8185;57.818;15.224;2023-06-19T15:17:07;25.40;99.90
16160;DHT22;8185;57.818;15.224;2023-06-19T15:19:34;26.70;99.90
16160;DHT22;8185;57.818;15.224;2023-06-19T15:22:01;26.10;99.90
16160;DHT22;8185;57.818;15.224;2023-06-19T15:24:28;25.10;99.90
16160;DHT22;8185;57.818;15.224;2023-06-19T15:26:55;24.70;99.90
16160;DHT22;8185;57.818;15.224;2023-06-19T15:29:24;24.10;99.90
16160;DHT22;8185;57.818;15.224;2023-06-19T15:31:53;23.80;99.90
16160;DHT22;8185;57.818;15.224;2023-06-19T15:34:20;23.30;99.90
16160;DHT22;8185;57.818;15.224;2023-06-19T15:36:47;23.00;99.90